sensor_id;sensor_type;location;lat;lon;timestamp;P1;durP1;ratioP1;P2;durP2;ratioP2
50281;SDS011;36176;51.506;10.272;2022-11-20T00:01:22;16.17;;;8.40;;
50281;SDS011;36176;51.506;10.272;2022-11-20T00:03:51;29.97;;;14.60;;
50281;SDS011;36176;51.506;10.272;2022-11-20T00:06:19;27.43;;;13.83;;
50281;SDS011;36176;51.506;10.272;2022-11-20T00:08:50;34.97;;;15.63;;
50281;SDS011;36176;51.506;10.272;2022-11-20T00:11:37;57.37;;;22.50;;
50281;SDS011;36176;51.506;10.272;2022-11-20T00:14:04;23.77;;;11.10;;
50281;SDS011;36176;51.506;10.272;2022-11-20T00:16:32;10.70;;;7.13;;
50281;SDS011;36176;51.506;10.272;2022-11-20T00:19:00;13.27;;;7.23;;
50281;SDS011;36176;51.506;10.272;2022-11-20T00:21:28;9.00;;;6.30;;
50281;SDS011;36176;51.506;10.272;2022-11-20T00:24:07;8.67;;;6.27;;
50281;SDS011;36176;51.506;10.272;2022-11-20T00:26:36;7.23;;;5.60;;
50281;SDS011;36176;51.506;10.272;2022-11-20T00:29:03;7.57;;;5.13;;
50281;SDS011;36176;51.506;10.272;2022-11-20T00:31:30;6.43;;;4.77;;
50281;SDS011;36176;51.506;10.272;2022-11-20T00:33:59;6.20;;;4.97;;
50281;SDS011;36176;51.506;10.272;2022-11-20T00:36:27;6.33;;;4.97;;
50281;SDS011;36176;51.506;10.272;2022-11-20T00:38:56;5.93;;;4.70;;
50281;SDS011;36176;51.506;10.272;2022-11-20T00:41:25;18.37;;;15.07;;
50281;SDS011;36176;51.506;10.272;2022-11-20T00:43:54;13.30;;;10.30;;
50281;SDS011;36176;51.506;10.272;2022-11-20T00:46:22;13.30;;;10.40;;
50281;SDS011;36176;51.506;10.272;2022-11-20T00:48:50;10.57;;;9.33;;
50281;SDS011;36176;51.506;10.272;2022-11-20T00:51:18;11.50;;;9.20;;
50281;SDS011;36176;51.506;10.272;2022-11-20T00:53:48;15.17;;;10.30;;
50281;SDS011;36176;51.506;10.272;2022-11-20T00:56:16;16.83;;;11.73;;
50281;SDS011;36176;51.506;10.272;2022-11-20T00:58:46;13.87;;;10.03;;
50281;SDS011;36176;51.506;10.272;2022-11-20T01:01:18;16.40;;;11.37;;
50281;SDS011;36176;51.506;10.272;2022-11-20T01:03:48;15.33;;;11.17;;
50281;SDS011;36176;51.506;10.272;2022-11-20T01:08:45;13.60;;;9.00;;
50281;SDS011;36176;51.506;10.272;2022-11-20T01:11:14;10.10;;;8.07;;
50281;SDS011;36176;51.506;10.272;2022-11-20T01:13:44;13.00;;;9.33;;
50281;SDS011;36176;51.506;10.272;2022-11-20T01:16:20;11.23;;;8.17;;
50281;SDS011;36176;51.506;10.272;2022-11-20T01:18:52;7.30;;;5.70;;
50281;SDS011;36176;51.506;10.272;2022-11-20T01:21:23;7.63;;;6.00;;
50281;SDS011;36176;51.506;10.272;2022-11-20T01:24:00;7.60;;;5.77;;
50281;SDS011;36176;51.506;10.272;2022-11-20T01:26:29;8.10;;;4.87;;
50281;SDS011;36176;51.506;10.272;2022-11-20T01:28:59;6.30;;;4.90;;
50281;SDS011;36176;51.506;10.272;2022-11-20T01:31:28;6.30;;;4.87;;
50281;SDS011;36176;51.506;10.272;2022-11-20T01:33:59;6.07;;;4.70;;
50281;SDS011;36176;51.506;10.272;2022-11-20T01:36:29;6.20;;;4.60;;
50281;SDS011;36176;51.506;10.272;2022-11-20T01:38:58;4.80;;;4.30;;
50281;SDS011;36176;51.506;10.272;2022-11-20T01:41:28;4.90;;;3.90;;
50281;SDS011;36176;51.506;10.272;2022-11-20T01:44:16;5.57;;;4.73;;
50281;SDS011;36176;51.506;10.272;2022-11-20T01:46:52;5.97;;;5.17;;
50281;SDS011;36176;51.506;10.272;2022-11-20T01:49:28;6.60;;;4.40;;
50281;SDS011;36176;51.506;10.272;2022-11-20T01:52:04;5.13;;;4.47;;
50281;SDS011;36176;51.506;10.272;2022-11-20T01:54:58;5.97;;;4.80;;
50281;SDS011;36176;51.506;10.272;2022-11-20T01:57:28;5.07;;;4.47;;
50281;SDS011;36176;51.506;10.272;2022-11-20T02:00:17;4.83;;;4.33;;
50281;SDS011;36176;51.506;10.272;2022-11-20T02:03:09;4.87;;;3.97;;
50281;SDS011;36176;51.506;10.272;2022-11-20T02:05:41;5.40;;;4.47;;
50281;SDS011;36176;51.506;10.272;2022-11-20T02:08:30;5.97;;;4.27;;
50281;SDS011;36176;51.506;10.272;2022-11-20T02:11:00;6.10;;;4.50;;
50281;SDS011;36176;51.506;10.272;2022-11-20T02:13:27;6.47;;;4.80;;
50281;SDS011;36176;51.506;10.272;2022-11-20T02:16:19;5.43;;;4.57;;
50281;SDS011;36176;51.506;10.272;2022-11-20T02:18:50;5.60;;;4.57;;
50281;SDS011;36176;51.506;10.272;2022-11-20T02:24:07;8.60;;;5.53;;
50281;SDS011;36176;51.506;10.272;2022-11-20T02:26:44;9.37;;;6.30;;
50281;SDS011;36176;51.506;10.272;2022-11-20T02:29:24;7.67;;;6.10;;
50281;SDS011;36176;51.506;10.272;2022-11-20T02:31:54;6.87;;;5.43;;
50281;SDS011;36176;51.506;10.272;2022-11-20T02:34:24;7.90;;;5.70;;
50281;SDS011;36176;51.506;10.272;2022-11-20T02:36:51;6.87;;;5.23;;
50281;SDS011;36176;51.506;10.272;2022-11-20T02:39:19;7.23;;;5.87;;
50281;SDS011;36176;51.506;10.272;2022-11-20T02:42:01;9.80;;;6.63;;
50281;SDS011;36176;51.506;10.272;2022-11-20T02:44:29;7.87;;;6.27;;
50281;SDS011;36176;51.506;10.272;2022-11-20T02:46:59;7.93;;;6.47;;
50281;SDS011;36176;51.506;10.272;2022-11-20T02:49:26;8.73;;;6.87;;
50281;SDS011;36176;51.506;10.272;2022-11-20T02:51:53;8.33;;;5.97;;
50281;SDS011;36176;51.506;10.272;2022-11-20T02:54:20;9.17;;;7.13;;
50281;SDS011;36176;51.506;10.272;2022-11-20T02:56:47;8.30;;;6.70;;
50281;SDS011;36176;51.506;10.272;2022-11-20T02:59:21;7.87;;;6.13;;
50281;SDS011;36176;51.506;10.272;2022-11-20T03:01:49;9.07;;;6.77;;
50281;SDS011;36176;51.506;10.272;2022-11-20T03:04:16;7.17;;;6.03;;
50281;SDS011;36176;51.506;10.272;2022-11-20T03:06:43;7.60;;;5.80;;
50281;SDS011;36176;51.506;10.272;2022-11-20T03:09:10;7.80;;;5.73;;
50281;SDS011;36176;51.506;10.272;2022-11-20T03:11:39;7.27;;;6.10;;
50281;SDS011;36176;51.506;10.272;2022-11-20T03:14:06;7.80;;;6.40;;
50281;SDS011;36176;51.506;10.272;2022-11-20T03:16:33;8.57;;;7.20;;
50281;SDS011;36176;51.506;10.272;2022-11-20T03:19:00;7.93;;;6.23;;
50281;SDS011;36176;51.506;10.272;2022-11-20T03:21:28;7.27;;;6.07;;
50281;SDS011;36176;51.506;10.272;2022-11-20T03:24:13;7.53;;;5.80;;
50281;SDS011;36176;51.506;10.272;2022-11-20T03:26:59;6.90;;;5.83;;
50281;SDS011;36176;51.506;10.272;2022-11-20T03:29:45;6.67;;;5.00;;
50281;SDS011;36176;51.506;10.272;2022-11-20T03:32:12;7.43;;;6.13;;
50281;SDS011;36176;51.506;10.272;2022-11-20T03:34:39;6.70;;;5.20;;
50281;SDS011;36176;51.506;10.272;2022-11-20T03:37:06;9.47;;;5.57;;
50281;SDS011;36176;51.506;10.272;2022-11-20T03:39:33;6.40;;;5.30;;
50281;SDS011;36176;51.506;10.272;2022-11-20T03:42:00;5.70;;;5.07;;
50281;SDS011;36176;51.506;10.272;2022-11-20T03:44:27;5.40;;;4.47;;
50281;SDS011;36176;51.506;10.272;2022-11-20T03:46:56;5.63;;;4.77;;
50281;SDS011;36176;51.506;10.272;2022-11-20T03:49:23;5.23;;;4.40;;
50281;SDS011;36176;51.506;10.272;2022-11-20T03:51:50;6.13;;;4.63;;
50281;SDS011;36176;51.506;10.272;2022-11-20T03:54:17;6.20;;;4.97;;
50281;SDS011;36176;51.506;10.272;2022-11-20T03:56:44;5.93;;;4.73;;
50281;SDS011;36176;51.506;10.272;2022-11-20T03:59:11;5.93;;;4.50;;
50281;SDS011;36176;51.506;10.272;2022-11-20T04:01:39;6.00;;;4.97;;
50281;SDS011;36176;51.506;10.272;2022-11-20T04:04:13;5.37;;;4.47;;
50281;SDS011;36176;51.506;10.272;2022-11-20T04:06:40;5.27;;;4.47;;
50281;SDS011;36176;51.506;10.272;2022-11-20T04:09:08;6.53;;;4.70;;
50281;SDS011;36176;51.506;10.272;2022-11-20T04:11:35;5.80;;;5.00;;
50281;SDS011;36176;51.506;10.272;2022-11-20T04:14:04;5.63;;;4.43;;
50281;SDS011;36176;51.506;10.272;2022-11-20T04:16:34;6.20;;;4.67;;
50281;SDS011;36176;51.506;10.272;2022-11-20T04:19:03;5.90;;;4.70;;
50281;SDS011;36176;51.506;10.272;2022-11-20T04:21:33;5.67;;;4.50;;
50281;SDS011;36176;51.506;10.272;2022-11-20T04:24:03;6.23;;;4.83;;
50281;SDS011;36176;51.506;10.272;2022-11-20T04:26:30;6.30;;;4.73;;
50281;SDS011;36176;51.506;10.272;2022-11-20T04:28:58;5.67;;;4.70;;
50281;SDS011;36176;51.506;10.272;2022-11-20T04:31:26;6.40;;;4.90;;
50281;SDS011;36176;51.506;10.272;2022-11-20T04:33:55;4.30;;;3.80;;
50281;SDS011;36176;51.506;10.272;2022-11-20T04:36:27;5.27;;;4.57;;
50281;SDS011;36176;51.506;10.272;2022-11-20T04:38:56;4.57;;;4.07;;
50281;SDS011;36176;51.506;10.272;2022-11-20T04:41:27;4.90;;;4.30;;
50281;SDS011;36176;51.506;10.272;2022-11-20T04:44:00;5.07;;;4.30;;
50281;SDS011;36176;51.506;10.272;2022-11-20T04:46:40;5.33;;;4.13;;
50281;SDS011;36176;51.506;10.272;2022-11-20T04:49:36;5.03;;;4.20;;
50281;SDS011;36176;51.506;10.272;2022-11-20T04:52:07;5.50;;;4.77;;
50281;SDS011;36176;51.506;10.272;2022-11-20T04:54:34;5.80;;;4.67;;
50281;SDS011;36176;51.506;10.272;2022-11-20T04:57:01;4.87;;;4.10;;
50281;SDS011;36176;51.506;10.272;2022-11-20T04:59:28;5.30;;;4.03;;
50281;SDS011;36176;51.506;10.272;2022-11-20T05:01:56;5.07;;;4.20;;
50281;SDS011;36176;51.506;10.272;2022-11-20T05:04:23;5.90;;;4.47;;
50281;SDS011;36176;51.506;10.272;2022-11-20T05:06:50;4.93;;;4.07;;
50281;SDS011;36176;51.506;10.272;2022-11-20T05:09:17;5.87;;;4.70;;
50281;SDS011;36176;51.506;10.272;2022-11-20T05:12:03;5.63;;;4.57;;
50281;SDS011;36176;51.506;10.272;2022-11-20T05:14:31;5.63;;;4.60;;
50281;SDS011;36176;51.506;10.272;2022-11-20T05:16:58;6.40;;;5.00;;
50281;SDS011;36176;51.506;10.272;2022-11-20T05:19:25;5.73;;;4.50;;
50281;SDS011;36176;51.506;10.272;2022-11-20T05:21:53;7.10;;;5.83;;
50281;SDS011;36176;51.506;10.272;2022-11-20T05:24:20;6.80;;;5.43;;
50281;SDS011;36176;51.506;10.272;2022-11-20T05:26:47;6.47;;;5.43;;
50281;SDS011;36176;51.506;10.272;2022-11-20T05:29:21;6.30;;;5.43;;
50281;SDS011;36176;51.506;10.272;2022-11-20T05:31:51;6.00;;;5.10;;
50281;SDS011;36176;51.506;10.272;2022-11-20T05:34:18;5.93;;;5.10;;
50281;SDS011;36176;51.506;10.272;2022-11-20T05:36:45;6.70;;;5.07;;
50281;SDS011;36176;51.506;10.272;2022-11-20T05:39:12;7.90;;;5.20;;
50281;SDS011;36176;51.506;10.272;2022-11-20T05:41:39;5.87;;;4.70;;
50281;SDS011;36176;51.506;10.272;2022-11-20T05:44:06;6.77;;;4.83;;
50281;SDS011;36176;51.506;10.272;2022-11-20T05:46:33;6.53;;;5.40;;
50281;SDS011;36176;51.506;10.272;2022-11-20T05:49:00;7.27;;;5.60;;
50281;SDS011;36176;51.506;10.272;2022-11-20T05:51:27;6.87;;;5.50;;
50281;SDS011;36176;51.506;10.272;2022-11-20T05:54:13;6.50;;;4.93;;
50281;SDS011;36176;51.506;10.272;2022-11-20T05:56:40;9.10;;;5.60;;
50281;SDS011;36176;51.506;10.272;2022-11-20T05:59:08;5.63;;;4.80;;
50281;SDS011;36176;51.506;10.272;2022-11-20T06:01:35;5.50;;;4.90;;
50281;SDS011;36176;51.506;10.272;2022-11-20T06:04:02;6.27;;;4.80;;
50281;SDS011;36176;51.506;10.272;2022-11-20T06:06:30;6.93;;;5.70;;
50281;SDS011;36176;51.506;10.272;2022-11-20T06:08:57;5.93;;;4.80;;
50281;SDS011;36176;51.506;10.272;2022-11-20T06:11:25;5.57;;;4.97;;
50281;SDS011;36176;51.506;10.272;2022-11-20T06:13:52;6.37;;;5.10;;
50281;SDS011;36176;51.506;10.272;2022-11-20T06:16:19;5.53;;;4.80;;
50281;SDS011;36176;51.506;10.272;2022-11-20T06:18:47;6.63;;;4.83;;
50281;SDS011;36176;51.506;10.272;2022-11-20T06:21:15;6.47;;;4.60;;
50281;SDS011;36176;51.506;10.272;2022-11-20T06:23:44;5.87;;;5.07;;
50281;SDS011;36176;51.506;10.272;2022-11-20T06:26:13;5.80;;;4.80;;
50281;SDS011;36176;51.506;10.272;2022-11-20T06:28:42;5.40;;;4.60;;
50281;SDS011;36176;51.506;10.272;2022-11-20T06:31:10;5.57;;;4.30;;
50281;SDS011;36176;51.506;10.272;2022-11-20T06:33:39;5.90;;;5.07;;
50281;SDS011;36176;51.506;10.272;2022-11-20T06:36:06;6.40;;;5.10;;
50281;SDS011;36176;51.506;10.272;2022-11-20T06:38:37;5.70;;;4.80;;
50281;SDS011;36176;51.506;10.272;2022-11-20T06:41:05;5.20;;;4.43;;
50281;SDS011;36176;51.506;10.272;2022-11-20T06:43:34;5.80;;;4.87;;
50281;SDS011;36176;51.506;10.272;2022-11-20T06:46:01;6.40;;;5.13;;
50281;SDS011;36176;51.506;10.272;2022-11-20T06:48:28;6.33;;;5.03;;
50281;SDS011;36176;51.506;10.272;2022-11-20T06:50:56;5.80;;;4.73;;
50281;SDS011;36176;51.506;10.272;2022-11-20T06:53:24;5.30;;;4.53;;
50281;SDS011;36176;51.506;10.272;2022-11-20T06:56:09;5.60;;;4.23;;
50281;SDS011;36176;51.506;10.272;2022-11-20T06:58:36;5.30;;;4.20;;
50281;SDS011;36176;51.506;10.272;2022-11-20T07:01:05;6.47;;;4.30;;
50281;SDS011;36176;51.506;10.272;2022-11-20T07:03:34;4.70;;;4.20;;
50281;SDS011;36176;51.506;10.272;2022-11-20T07:06:02;5.70;;;4.70;;
50281;SDS011;36176;51.506;10.272;2022-11-20T07:08:30;6.07;;;4.83;;
50281;SDS011;36176;51.506;10.272;2022-11-20T07:10:57;5.37;;;4.57;;
50281;SDS011;36176;51.506;10.272;2022-11-20T07:13:30;5.47;;;4.40;;
50281;SDS011;36176;51.506;10.272;2022-11-20T07:16:14;5.20;;;4.10;;
50281;SDS011;36176;51.506;10.272;2022-11-20T07:18:42;5.00;;;4.17;;
50281;SDS011;36176;51.506;10.272;2022-11-20T07:21:16;6.27;;;4.20;;
50281;SDS011;36176;51.506;10.272;2022-11-20T07:23:50;5.97;;;5.07;;
50281;SDS011;36176;51.506;10.272;2022-11-20T07:26:17;6.47;;;5.17;;
50281;SDS011;36176;51.506;10.272;2022-11-20T07:28:44;6.23;;;5.07;;
50281;SDS011;36176;51.506;10.272;2022-11-20T07:31:14;9.23;;;6.93;;
50281;SDS011;36176;51.506;10.272;2022-11-20T07:33:45;6.57;;;5.50;;
50281;SDS011;36176;51.506;10.272;2022-11-20T07:36:13;11.80;;;8.73;;
50281;SDS011;36176;51.506;10.272;2022-11-20T07:38:40;13.20;;;9.83;;
50281;SDS011;36176;51.506;10.272;2022-11-20T07:41:07;10.63;;;7.47;;
50281;SDS011;36176;51.506;10.272;2022-11-20T07:43:34;10.87;;;8.13;;
50281;SDS011;36176;51.506;10.272;2022-11-20T07:46:07;11.17;;;8.63;;
50281;SDS011;36176;51.506;10.272;2022-11-20T07:48:34;10.40;;;8.17;;
50281;SDS011;36176;51.506;10.272;2022-11-20T07:51:01;11.93;;;9.33;;
50281;SDS011;36176;51.506;10.272;2022-11-20T07:53:28;13.60;;;10.53;;
50281;SDS011;36176;51.506;10.272;2022-11-20T07:55:58;11.93;;;10.00;;
50281;SDS011;36176;51.506;10.272;2022-11-20T07:58:26;10.50;;;9.40;;
50281;SDS011;36176;51.506;10.272;2022-11-20T08:00:55;10.27;;;8.20;;
50281;SDS011;36176;51.506;10.272;2022-11-20T08:03:23;9.20;;;7.93;;
50281;SDS011;36176;51.506;10.272;2022-11-20T08:05:52;12.80;;;10.00;;
50281;SDS011;36176;51.506;10.272;2022-11-20T08:08:20;13.33;;;10.73;;
50281;SDS011;36176;51.506;10.272;2022-11-20T08:10:48;15.13;;;11.80;;
50281;SDS011;36176;51.506;10.272;2022-11-20T08:13:15;19.17;;;14.97;;
50281;SDS011;36176;51.506;10.272;2022-11-20T08:16:00;22.17;;;16.33;;
50281;SDS011;36176;51.506;10.272;2022-11-20T08:18:27;17.27;;;12.80;;
50281;SDS011;36176;51.506;10.272;2022-11-20T08:21:00;14.13;;;10.83;;
50281;SDS011;36176;51.506;10.272;2022-11-20T08:23:29;14.73;;;10.60;;
50281;SDS011;36176;51.506;10.272;2022-11-20T08:25:57;15.17;;;10.17;;
50281;SDS011;36176;51.506;10.272;2022-11-20T08:28:24;15.60;;;10.17;;
50281;SDS011;36176;51.506;10.272;2022-11-20T08:30:51;14.20;;;10.13;;
50281;SDS011;36176;51.506;10.272;2022-11-20T08:33:26;16.97;;;10.60;;
50281;SDS011;36176;51.506;10.272;2022-11-20T08:35:53;14.17;;;10.13;;
50281;SDS011;36176;51.506;10.272;2022-11-20T08:38:20;16.70;;;10.67;;
50281;SDS011;36176;51.506;10.272;2022-11-20T08:40:57;16.10;;;10.13;;
50281;SDS011;36176;51.506;10.272;2022-11-20T08:43:43;13.03;;;9.27;;
50281;SDS011;36176;51.506;10.272;2022-11-20T08:46:11;14.00;;;9.40;;
50281;SDS011;36176;51.506;10.272;2022-11-20T08:48:38;10.97;;;8.37;;
50281;SDS011;36176;51.506;10.272;2022-11-20T08:51:06;16.53;;;10.83;;
50281;SDS011;36176;51.506;10.272;2022-11-20T08:53:33;16.40;;;11.50;;
50281;SDS011;36176;51.506;10.272;2022-11-20T08:56:03;16.67;;;10.97;;
50281;SDS011;36176;51.506;10.272;2022-11-20T08:58:30;14.47;;;9.83;;
50281;SDS011;36176;51.506;10.272;2022-11-20T09:01:18;14.07;;;9.00;;
50281;SDS011;36176;51.506;10.272;2022-11-20T09:03:47;15.47;;;9.13;;
50281;SDS011;36176;51.506;10.272;2022-11-20T09:06:14;13.00;;;8.20;;
50281;SDS011;36176;51.506;10.272;2022-11-20T09:08:42;12.57;;;9.20;;
50281;SDS011;36176;51.506;10.272;2022-11-20T09:11:09;13.80;;;9.33;;
50281;SDS011;36176;51.506;10.272;2022-11-20T09:13:38;15.27;;;10.30;;
50281;SDS011;36176;51.506;10.272;2022-11-20T09:16:06;14.50;;;10.07;;
50281;SDS011;36176;51.506;10.272;2022-11-20T09:18:35;15.57;;;10.80;;
50281;SDS011;36176;51.506;10.272;2022-11-20T09:21:05;11.90;;;8.70;;
50281;SDS011;36176;51.506;10.272;2022-11-20T09:23:38;11.77;;;8.40;;
50281;SDS011;36176;51.506;10.272;2022-11-20T09:26:15;13.73;;;9.77;;
50281;SDS011;36176;51.506;10.272;2022-11-20T09:28:42;11.73;;;8.87;;
50281;SDS011;36176;51.506;10.272;2022-11-20T09:31:23;11.87;;;8.57;;
50281;SDS011;36176;51.506;10.272;2022-11-20T09:33:52;12.70;;;8.80;;
50281;SDS011;36176;51.506;10.272;2022-11-20T09:36:20;14.80;;;7.70;;
50281;SDS011;36176;51.506;10.272;2022-11-20T09:38:47;11.63;;;8.93;;
50281;SDS011;36176;51.506;10.272;2022-11-20T09:46:53;12.27;;;9.10;;
50281;SDS011;36176;51.506;10.272;2022-11-20T09:51:59;10.73;;;8.30;;
50281;SDS011;36176;51.506;10.272;2022-11-20T09:54:33;11.33;;;8.77;;
50281;SDS011;36176;51.506;10.272;2022-11-20T10:00:09;12.40;;;9.33;;
50281;SDS011;36176;51.506;10.272;2022-11-20T10:02:41;9.30;;;8.13;;
50281;SDS011;36176;51.506;10.272;2022-11-20T10:05:26;11.73;;;9.03;;
50281;SDS011;36176;51.506;10.272;2022-11-20T10:08:07;9.10;;;7.93;;
50281;SDS011;36176;51.506;10.272;2022-11-20T10:10:53;9.47;;;7.70;;
50281;SDS011;36176;51.506;10.272;2022-11-20T10:21:55;12.33;;;9.63;;
50281;SDS011;36176;51.506;10.272;2022-11-20T10:27:49;11.03;;;8.83;;
50281;SDS011;36176;51.506;10.272;2022-11-20T10:30:49;10.33;;;8.87;;
50281;SDS011;36176;51.506;10.272;2022-11-20T10:33:25;10.27;;;8.70;;
50281;SDS011;36176;51.506;10.272;2022-11-20T10:36:15;8.63;;;7.73;;
50281;SDS011;36176;51.506;10.272;2022-11-20T10:38:48;9.83;;;8.77;;
50281;SDS011;36176;51.506;10.272;2022-11-20T10:44:14;8.47;;;7.60;;
50281;SDS011;36176;51.506;10.272;2022-11-20T10:47:05;8.20;;;7.30;;
50281;SDS011;36176;51.506;10.272;2022-11-20T10:49:37;9.00;;;8.10;;
50281;SDS011;36176;51.506;10.272;2022-11-20T10:57:31;9.67;;;8.67;;
50281;SDS011;36176;51.506;10.272;2022-11-20T11:00:14;9.90;;;8.90;;
50281;SDS011;36176;51.506;10.272;2022-11-20T11:02:47;10.47;;;9.30;;
50281;SDS011;36176;51.506;10.272;2022-11-20T11:07:54;10.67;;;9.37;;
50281;SDS011;36176;51.506;10.272;2022-11-20T11:10:25;8.60;;;7.73;;
50281;SDS011;36176;51.506;10.272;2022-11-20T11:12:59;9.00;;;8.10;;
50281;SDS011;36176;51.506;10.272;2022-11-20T11:15:38;9.37;;;8.47;;
50281;SDS011;36176;51.506;10.272;2022-11-20T11:18:33;8.73;;;7.83;;
50281;SDS011;36176;51.506;10.272;2022-11-20T11:21:02;9.00;;;7.90;;
50281;SDS011;36176;51.506;10.272;2022-11-20T11:23:32;8.90;;;8.00;;
50281;SDS011;36176;51.506;10.272;2022-11-20T11:26:04;8.73;;;7.83;;
50281;SDS011;36176;51.506;10.272;2022-11-20T11:28:55;9.27;;;8.37;;
50281;SDS011;36176;51.506;10.272;2022-11-20T11:31:27;9.00;;;7.47;;
50281;SDS011;36176;51.506;10.272;2022-11-20T11:34:05;8.90;;;8.00;;
50281;SDS011;36176;51.506;10.272;2022-11-20T11:37:05;8.77;;;7.87;;
50281;SDS011;36176;51.506;10.272;2022-11-20T11:39:48;9.13;;;8.23;;
50281;SDS011;36176;51.506;10.272;2022-11-20T11:42:39;8.67;;;7.77;;
50281;SDS011;36176;51.506;10.272;2022-11-20T11:45:16;8.20;;;7.40;;
50281;SDS011;36176;51.506;10.272;2022-11-20T11:47:45;8.27;;;7.37;;
50281;SDS011;36176;51.506;10.272;2022-11-20T11:50:22;9.10;;;7.83;;
50281;SDS011;36176;51.506;10.272;2022-11-20T11:53:12;9.63;;;8.40;;
50281;SDS011;36176;51.506;10.272;2022-11-20T12:07:20;8.47;;;7.57;;
50281;SDS011;36176;51.506;10.272;2022-11-20T12:12:51;9.00;;;7.77;;
50281;SDS011;36176;51.506;10.272;2022-11-20T12:15:31;8.77;;;7.87;;
50281;SDS011;36176;51.506;10.272;2022-11-20T12:18:09;8.33;;;7.50;;
50281;SDS011;36176;51.506;10.272;2022-11-20T12:20:57;8.70;;;7.50;;
50281;SDS011;36176;51.506;10.272;2022-11-20T12:26:57;9.23;;;8.33;;
50281;SDS011;36176;51.506;10.272;2022-11-20T12:30:04;9.10;;;7.10;;
50281;SDS011;36176;51.506;10.272;2022-11-20T12:32:47;8.73;;;7.47;;
50281;SDS011;36176;51.506;10.272;2022-11-20T12:41:18;8.77;;;7.87;;
50281;SDS011;36176;51.506;10.272;2022-11-20T12:47:10;8.57;;;7.67;;
50281;SDS011;36176;51.506;10.272;2022-11-20T12:53:05;8.93;;;8.00;;
50281;SDS011;36176;51.506;10.272;2022-11-20T12:58:48;7.87;;;7.03;;
50281;SDS011;36176;51.506;10.272;2022-11-20T13:01:24;9.50;;;8.50;;
50281;SDS011;36176;51.506;10.272;2022-11-20T13:07:00;8.07;;;6.67;;
50281;SDS011;36176;51.506;10.272;2022-11-20T13:09:30;8.43;;;7.47;;
50281;SDS011;36176;51.506;10.272;2022-11-20T13:12:14;7.97;;;7.17;;
50281;SDS011;36176;51.506;10.272;2022-11-20T13:17:51;7.83;;;7.03;;
50281;SDS011;36176;51.506;10.272;2022-11-20T13:20:22;8.10;;;7.30;;
50281;SDS011;36176;51.506;10.272;2022-11-20T13:22:50;7.87;;;7.07;;
50281;SDS011;36176;51.506;10.272;2022-11-20T13:25:31;8.30;;;7.37;;
50281;SDS011;36176;51.506;10.272;2022-11-20T13:28:03;7.70;;;6.83;;
50281;SDS011;36176;51.506;10.272;2022-11-20T13:30:48;8.90;;;6.93;;
50281;SDS011;36176;51.506;10.272;2022-11-20T13:36:22;7.73;;;6.93;;
50281;SDS011;36176;51.506;10.272;2022-11-20T13:38:53;7.27;;;5.77;;
50281;SDS011;36176;51.506;10.272;2022-11-20T13:41:35;6.73;;;6.03;;
50281;SDS011;36176;51.506;10.272;2022-11-20T13:46:52;6.00;;;5.40;;
50281;SDS011;36176;51.506;10.272;2022-11-20T13:49:26;7.17;;;6.20;;
50281;SDS011;36176;51.506;10.272;2022-11-20T13:52:02;6.17;;;5.43;;
50281;SDS011;36176;51.506;10.272;2022-11-20T13:54:52;6.53;;;5.83;;
50281;SDS011;36176;51.506;10.272;2022-11-20T13:57:48;7.23;;;5.90;;
50281;SDS011;36176;51.506;10.272;2022-11-20T14:00:20;6.17;;;5.57;;
50281;SDS011;36176;51.506;10.272;2022-11-20T14:03:06;34.03;;;23.53;;
50281;SDS011;36176;51.506;10.272;2022-11-20T14:05:46;9.77;;;8.00;;
50281;SDS011;36176;51.506;10.272;2022-11-20T14:08:24;6.80;;;6.10;;
50281;SDS011;36176;51.506;10.272;2022-11-20T14:16:19;5.50;;;5.00;;
50281;SDS011;36176;51.506;10.272;2022-11-20T14:18:47;5.40;;;4.90;;
50281;SDS011;36176;51.506;10.272;2022-11-20T14:21:28;5.57;;;5.00;;
50281;SDS011;36176;51.506;10.272;2022-11-20T14:24:06;5.50;;;4.90;;
50281;SDS011;36176;51.506;10.272;2022-11-20T14:26:44;5.40;;;4.90;;
50281;SDS011;36176;51.506;10.272;2022-11-20T14:29:16;6.27;;;5.47;;
50281;SDS011;36176;51.506;10.272;2022-11-20T14:31:47;8.43;;;7.50;;
50281;SDS011;36176;51.506;10.272;2022-11-20T14:34:33;10.33;;;9.23;;
50281;SDS011;36176;51.506;10.272;2022-11-20T14:37:10;9.00;;;8.10;;
50281;SDS011;36176;51.506;10.272;2022-11-20T14:39:47;7.40;;;6.60;;
50281;SDS011;36176;51.506;10.272;2022-11-20T14:42:24;7.27;;;6.50;;
50281;SDS011;36176;51.506;10.272;2022-11-20T14:44:54;8.17;;;6.33;;
50281;SDS011;36176;51.506;10.272;2022-11-20T14:47:26;7.93;;;6.73;;
50281;SDS011;36176;51.506;10.272;2022-11-20T14:49:57;8.30;;;6.90;;
50281;SDS011;36176;51.506;10.272;2022-11-20T14:52:26;8.27;;;7.27;;
50281;SDS011;36176;51.506;10.272;2022-11-20T14:54:55;7.23;;;6.47;;
50281;SDS011;36176;51.506;10.272;2022-11-20T14:57:29;7.53;;;6.40;;
50281;SDS011;36176;51.506;10.272;2022-11-20T15:02:42;8.17;;;6.77;;
50281;SDS011;36176;51.506;10.272;2022-11-20T15:05:14;9.07;;;7.13;;
50281;SDS011;36176;51.506;10.272;2022-11-20T15:07:43;12.57;;;9.60;;
50281;SDS011;36176;51.506;10.272;2022-11-20T15:10:22;11.60;;;8.07;;
50281;SDS011;36176;51.506;10.272;2022-11-20T15:12:55;8.67;;;6.77;;
50281;SDS011;36176;51.506;10.272;2022-11-20T15:15:36;10.13;;;7.53;;
50281;SDS011;36176;51.506;10.272;2022-11-20T15:18:21;11.77;;;8.43;;
50281;SDS011;36176;51.506;10.272;2022-11-20T15:20:51;8.97;;;7.17;;
50281;SDS011;36176;51.506;10.272;2022-11-20T15:23:20;9.23;;;7.87;;
50281;SDS011;36176;51.506;10.272;2022-11-20T15:25:47;8.00;;;6.90;;
50281;SDS011;36176;51.506;10.272;2022-11-20T15:30:48;8.67;;;7.10;;
50281;SDS011;36176;51.506;10.272;2022-11-20T15:33:16;8.47;;;7.20;;
50281;SDS011;36176;51.506;10.272;2022-11-20T15:35:44;7.93;;;6.97;;
50281;SDS011;36176;51.506;10.272;2022-11-20T15:38:12;8.03;;;6.83;;
50281;SDS011;36176;51.506;10.272;2022-11-20T15:40:39;6.93;;;5.80;;
50281;SDS011;36176;51.506;10.272;2022-11-20T15:43:09;6.00;;;5.13;;
50281;SDS011;36176;51.506;10.272;2022-11-20T15:48:20;5.50;;;5.00;;
50281;SDS011;36176;51.506;10.272;2022-11-20T15:50:50;6.67;;;5.90;;
50281;SDS011;36176;51.506;10.272;2022-11-20T15:53:46;10.07;;;8.50;;
50281;SDS011;36176;51.506;10.272;2022-11-20T15:56:29;7.60;;;6.20;;
50281;SDS011;36176;51.506;10.272;2022-11-20T15:58:59;7.17;;;6.07;;
50281;SDS011;36176;51.506;10.272;2022-11-20T16:01:27;11.90;;;9.30;;
50281;SDS011;36176;51.506;10.272;2022-11-20T16:03:54;15.93;;;12.30;;
50281;SDS011;36176;51.506;10.272;2022-11-20T16:06:21;12.07;;;9.53;;
50281;SDS011;36176;51.506;10.272;2022-11-20T16:08:49;8.67;;;7.07;;
50281;SDS011;36176;51.506;10.272;2022-11-20T16:11:18;11.30;;;8.50;;
50281;SDS011;36176;51.506;10.272;2022-11-20T16:13:45;8.97;;;6.83;;
50281;SDS011;36176;51.506;10.272;2022-11-20T16:16:32;30.50;;;20.10;;
50281;SDS011;36176;51.506;10.272;2022-11-20T16:19:01;25.67;;;17.73;;
50281;SDS011;36176;51.506;10.272;2022-11-20T16:21:29;17.67;;;13.00;;
50281;SDS011;36176;51.506;10.272;2022-11-20T16:24:00;33.40;;;21.20;;
50281;SDS011;36176;51.506;10.272;2022-11-20T16:26:28;16.63;;;12.40;;
50281;SDS011;36176;51.506;10.272;2022-11-20T16:28:56;12.13;;;9.80;;
50281;SDS011;36176;51.506;10.272;2022-11-20T16:31:25;10.10;;;8.90;;
50281;SDS011;36176;51.506;10.272;2022-11-20T16:33:52;9.73;;;8.27;;
50281;SDS011;36176;51.506;10.272;2022-11-20T16:40:22;12.50;;;10.10;;